sensor_id;sensor_type;location;lat;lon;timestamp;P1;durP1;ratioP1;P2;durP2;ratioP2
5357;SDS011;2702;51.014;7.170;2023-01-29T00:01:38;32.27;;;21.97;;
5357;SDS011;2702;51.014;7.170;2023-01-29T00:04:04;33.60;;;22.37;;
5357;SDS011;2702;51.014;7.170;2023-01-29T00:06:30;31.27;;;21.87;;
5357;SDS011;2702;51.014;7.170;2023-01-29T00:08:56;35.90;;;23.83;;
5357;SDS011;2702;51.014;7.170;2023-01-29T00:11:22;30.93;;;22.37;;
5357;SDS011;2702;51.014;7.170;2023-01-29T00:13:51;38.17;;;23.20;;
5357;SDS011;2702;51.014;7.170;2023-01-29T00:16:17;30.58;;;21.73;;
5357;SDS011;2702;51.014;7.170;2023-01-29T00:18:43;29.00;;;21.40;;
5357;SDS011;2702;51.014;7.170;2023-01-29T00:21:10;29.30;;;21.20;;
5357;SDS011;2702;51.014;7.170;2023-01-29T00:23:37;26.40;;;20.63;;
5357;SDS011;2702;51.014;7.170;2023-01-29T00:26:04;25.58;;;19.55;;
5357;SDS011;2702;51.014;7.170;2023-01-29T00:28:30;28.75;;;19.90;;
5357;SDS011;2702;51.014;7.170;2023-01-29T00:30:55;27.17;;;18.50;;
5357;SDS011;2702;51.014;7.170;2023-01-29T00:33:21;31.10;;;20.43;;
5357;SDS011;2702;51.014;7.170;2023-01-29T00:35:47;31.23;;;21.83;;
5357;SDS011;2702;51.014;7.170;2023-01-29T00:38:13;25.63;;;19.33;;
5357;SDS011;2702;51.014;7.170;2023-01-29T00:40:39;26.27;;;19.38;;
5357;SDS011;2702;51.014;7.170;2023-01-29T00:43:24;26.73;;;19.90;;
5357;SDS011;2702;51.014;7.170;2023-01-29T00:46:08;28.23;;;20.85;;
5357;SDS011;2702;51.014;7.170;2023-01-29T00:48:35;32.90;;;20.38;;
5357;SDS011;2702;51.014;7.170;2023-01-29T00:51:01;29.83;;;21.15;;
5357;SDS011;2702;51.014;7.170;2023-01-29T00:53:27;25.88;;;20.23;;
5357;SDS011;2702;51.014;7.170;2023-01-29T00:55:53;28.75;;;21.10;;
5357;SDS011;2702;51.014;7.170;2023-01-29T00:58:22;30.05;;;21.02;;
5357;SDS011;2702;51.014;7.170;2023-01-29T01:01:01;29.13;;;20.70;;
5357;SDS011;2702;51.014;7.170;2023-01-29T01:03:28;31.73;;;21.10;;
5357;SDS011;2702;51.014;7.170;2023-01-29T01:06:04;27.48;;;19.77;;
5357;SDS011;2702;51.014;7.170;2023-01-29T01:08:31;27.58;;;19.75;;
5357;SDS011;2702;51.014;7.170;2023-01-29T01:11:15;30.25;;;19.42;;
5357;SDS011;2702;51.014;7.170;2023-01-29T01:13:41;29.98;;;20.52;;
5357;SDS011;2702;51.014;7.170;2023-01-29T01:16:08;29.75;;;20.80;;
5357;SDS011;2702;51.014;7.170;2023-01-29T01:18:38;30.20;;;21.52;;
5357;SDS011;2702;51.014;7.170;2023-01-29T01:21:05;31.65;;;21.33;;
5357;SDS011;2702;51.014;7.170;2023-01-29T01:23:31;31.00;;;21.05;;
5357;SDS011;2702;51.014;7.170;2023-01-29T01:25:57;30.52;;;21.20;;
5357;SDS011;2702;51.014;7.170;2023-01-29T01:28:23;31.45;;;20.80;;
5357;SDS011;2702;51.014;7.170;2023-01-29T01:30:49;30.38;;;21.17;;
5357;SDS011;2702;51.014;7.170;2023-01-29T01:33:15;31.97;;;21.80;;
5357;SDS011;2702;51.014;7.170;2023-01-29T01:35:41;32.88;;;23.00;;
5357;SDS011;2702;51.014;7.170;2023-01-29T01:38:07;33.33;;;20.83;;
5357;SDS011;2702;51.014;7.170;2023-01-29T01:40:33;33.87;;;21.30;;
5357;SDS011;2702;51.014;7.170;2023-01-29T01:42:59;30.80;;;21.08;;
5357;SDS011;2702;51.014;7.170;2023-01-29T01:45:27;33.30;;;21.88;;
5357;SDS011;2702;51.014;7.170;2023-01-29T01:50:48;31.45;;;22.75;;
5357;SDS011;2702;51.014;7.170;2023-01-29T01:53:19;30.77;;;22.20;;
5357;SDS011;2702;51.014;7.170;2023-01-29T01:55:55;30.88;;;21.45;;
5357;SDS011;2702;51.014;7.170;2023-01-29T01:58:26;31.02;;;21.20;;
5357;SDS011;2702;51.014;7.170;2023-01-29T02:00:57;28.00;;;19.60;;
5357;SDS011;2702;51.014;7.170;2023-01-29T02:03:23;27.63;;;19.77;;
5357;SDS011;2702;51.014;7.170;2023-01-29T02:06:14;24.65;;;19.08;;
5357;SDS011;2702;51.014;7.170;2023-01-29T02:09:04;27.58;;;19.40;;
5357;SDS011;2702;51.014;7.170;2023-01-29T02:12:03;27.00;;;19.63;;
5357;SDS011;2702;51.014;7.170;2023-01-29T02:14:32;30.00;;;21.55;;
5357;SDS011;2702;51.014;7.170;2023-01-29T02:17:03;32.10;;;23.80;;
5357;SDS011;2702;51.014;7.170;2023-01-29T02:19:36;33.35;;;23.65;;
5357;SDS011;2702;51.014;7.170;2023-01-29T02:28:05;35.03;;;23.27;;
5357;SDS011;2702;51.014;7.170;2023-01-29T02:39:14;29.40;;;20.85;;
5357;SDS011;2702;51.014;7.170;2023-01-29T02:44:41;28.52;;;20.75;;
5357;SDS011;2702;51.014;7.170;2023-01-29T02:49:55;31.10;;;20.17;;
5357;SDS011;2702;51.014;7.170;2023-01-29T02:52:35;28.15;;;20.15;;
5357;SDS011;2702;51.014;7.170;2023-01-29T02:55:25;32.00;;;21.25;;
5357;SDS011;2702;51.014;7.170;2023-01-29T02:57:55;27.65;;;18.75;;
5357;SDS011;2702;51.014;7.170;2023-01-29T03:00:29;38.10;;;21.90;;
5357;SDS011;2702;51.014;7.170;2023-01-29T03:03:44;34.38;;;21.27;;
5357;SDS011;2702;51.014;7.170;2023-01-29T03:06:03;30.88;;;21.45;;
5357;SDS011;2702;51.014;7.170;2023-01-29T03:11:07;30.35;;;20.40;;
5357;SDS011;2702;51.014;7.170;2023-01-29T03:19:02;31.67;;;20.85;;
5357;SDS011;2702;51.014;7.170;2023-01-29T03:21:39;32.00;;;21.83;;
5357;SDS011;2702;51.014;7.170;2023-01-29T03:24:16;28.52;;;19.05;;
5357;SDS011;2702;51.014;7.170;2023-01-29T03:27:06;28.73;;;19.08;;
5357;SDS011;2702;51.014;7.170;2023-01-29T03:29:53;28.92;;;19.60;;
5357;SDS011;2702;51.014;7.170;2023-01-29T03:32:39;31.15;;;20.85;;
5357;SDS011;2702;51.014;7.170;2023-01-29T03:35:07;31.25;;;18.73;;
5357;SDS011;2702;51.014;7.170;2023-01-29T03:37:38;26.17;;;19.13;;
5357;SDS011;2702;51.014;7.170;2023-01-29T03:40:10;28.40;;;18.85;;
5357;SDS011;2702;51.014;7.170;2023-01-29T03:45:16;29.40;;;21.35;;
5357;SDS011;2702;51.014;7.170;2023-01-29T03:50:30;29.90;;;20.25;;
5357;SDS011;2702;51.014;7.170;2023-01-29T03:55:58;34.60;;;21.75;;
5357;SDS011;2702;51.014;7.170;2023-01-29T04:01:28;36.92;;;21.88;;
5357;SDS011;2702;51.014;7.170;2023-01-29T04:04:04;33.70;;;21.60;;
5357;SDS011;2702;51.014;7.170;2023-01-29T04:06:38;42.78;;;23.98;;
5357;SDS011;2702;51.014;7.170;2023-01-29T04:09:12;35.58;;;22.92;;
5357;SDS011;2702;51.014;7.170;2023-01-29T04:12:01;33.90;;;22.98;;
5357;SDS011;2702;51.014;7.170;2023-01-29T04:14:33;36.97;;;23.05;;
5357;SDS011;2702;51.014;7.170;2023-01-29T04:17:00;34.08;;;22.17;;
5357;SDS011;2702;51.014;7.170;2023-01-29T04:19:40;36.40;;;23.60;;
5357;SDS011;2702;51.014;7.170;2023-01-29T04:22:10;36.47;;;23.07;;
5357;SDS011;2702;51.014;7.170;2023-01-29T04:24:55;28.77;;;19.92;;
5357;SDS011;2702;51.014;7.170;2023-01-29T04:41:43;36.78;;;21.40;;
5357;SDS011;2702;51.014;7.170;2023-01-29T04:47:24;34.40;;;22.95;;
5357;SDS011;2702;51.014;7.170;2023-01-29T04:53:25;33.20;;;21.75;;
5357;SDS011;2702;51.014;7.170;2023-01-29T04:55:42;36.55;;;22.83;;
5357;SDS011;2702;51.014;7.170;2023-01-29T04:58:31;37.08;;;22.70;;
5357;SDS011;2702;51.014;7.170;2023-01-29T05:01:10;40.03;;;25.08;;
5357;SDS011;2702;51.014;7.170;2023-01-29T05:03:39;36.33;;;23.00;;
5357;SDS011;2702;51.014;7.170;2023-01-29T05:06:08;38.40;;;23.00;;
5357;SDS011;2702;51.014;7.170;2023-01-29T05:08:36;35.03;;;21.48;;
5357;SDS011;2702;51.014;7.170;2023-01-29T05:11:03;31.17;;;19.73;;
5357;SDS011;2702;51.014;7.170;2023-01-29T05:13:30;35.28;;;21.80;;
5357;SDS011;2702;51.014;7.170;2023-01-29T05:18:38;32.88;;;21.83;;
5357;SDS011;2702;51.014;7.170;2023-01-29T05:21:06;35.55;;;23.40;;
5357;SDS011;2702;51.014;7.170;2023-01-29T05:23:33;39.03;;;25.08;;
5357;SDS011;2702;51.014;7.170;2023-01-29T05:25:59;37.17;;;23.67;;
5357;SDS011;2702;51.014;7.170;2023-01-29T05:28:25;34.30;;;24.13;;
5357;SDS011;2702;51.014;7.170;2023-01-29T05:30:51;38.10;;;22.93;;
5357;SDS011;2702;51.014;7.170;2023-01-29T05:33:26;36.55;;;22.30;;
5357;SDS011;2702;51.014;7.170;2023-01-29T05:35:53;35.05;;;22.80;;
5357;SDS011;2702;51.014;7.170;2023-01-29T05:38:20;39.22;;;23.25;;
5357;SDS011;2702;51.014;7.170;2023-01-29T05:40:47;36.75;;;23.45;;
5357;SDS011;2702;51.014;7.170;2023-01-29T05:43:19;32.88;;;21.13;;
5357;SDS011;2702;51.014;7.170;2023-01-29T05:45:54;35.95;;;23.33;;
5357;SDS011;2702;51.014;7.170;2023-01-29T05:48:27;36.63;;;22.15;;
5357;SDS011;2702;51.014;7.170;2023-01-29T05:50:59;43.95;;;23.98;;
5357;SDS011;2702;51.014;7.170;2023-01-29T05:53:29;34.95;;;22.73;;
5357;SDS011;2702;51.014;7.170;2023-01-29T05:55:55;34.78;;;23.25;;
5357;SDS011;2702;51.014;7.170;2023-01-29T05:58:24;34.05;;;21.52;;
5357;SDS011;2702;51.014;7.170;2023-01-29T06:00:50;37.83;;;22.87;;
5357;SDS011;2702;51.014;7.170;2023-01-29T06:03:16;40.57;;;23.80;;
5357;SDS011;2702;51.014;7.170;2023-01-29T06:05:42;32.37;;;22.17;;
5357;SDS011;2702;51.014;7.170;2023-01-29T06:08:08;34.72;;;22.95;;
5357;SDS011;2702;51.014;7.170;2023-01-29T06:10:34;38.67;;;25.20;;
5357;SDS011;2702;51.014;7.170;2023-01-29T06:13:00;38.37;;;24.83;;
5357;SDS011;2702;51.014;7.170;2023-01-29T06:15:25;38.47;;;23.30;;
5357;SDS011;2702;51.014;7.170;2023-01-29T06:17:54;34.50;;;22.97;;
5357;SDS011;2702;51.014;7.170;2023-01-29T06:20:21;33.80;;;21.70;;
5357;SDS011;2702;51.014;7.170;2023-01-29T06:22:47;37.03;;;22.02;;
5357;SDS011;2702;51.014;7.170;2023-01-29T06:25:13;38.10;;;22.87;;
5357;SDS011;2702;51.014;7.170;2023-01-29T06:27:39;36.57;;;23.37;;
5357;SDS011;2702;51.014;7.170;2023-01-29T06:30:05;35.60;;;22.77;;
5357;SDS011;2702;51.014;7.170;2023-01-29T06:32:32;34.90;;;23.60;;
5357;SDS011;2702;51.014;7.170;2023-01-29T06:34:58;43.17;;;24.80;;
5357;SDS011;2702;51.014;7.170;2023-01-29T06:37:24;33.40;;;22.87;;
5357;SDS011;2702;51.014;7.170;2023-01-29T06:39:49;43.63;;;25.33;;
5357;SDS011;2702;51.014;7.170;2023-01-29T06:42:15;43.07;;;26.27;;
5357;SDS011;2702;51.014;7.170;2023-01-29T06:44:41;40.27;;;25.53;;
5357;SDS011;2702;51.014;7.170;2023-01-29T06:47:07;42.47;;;26.00;;
5357;SDS011;2702;51.014;7.170;2023-01-29T06:49:33;37.97;;;24.23;;
5357;SDS011;2702;51.014;7.170;2023-01-29T06:51:58;37.03;;;23.70;;
5357;SDS011;2702;51.014;7.170;2023-01-29T06:54:24;36.93;;;23.37;;
5357;SDS011;2702;51.014;7.170;2023-01-29T06:56:50;39.53;;;25.20;;
5357;SDS011;2702;51.014;7.170;2023-01-29T06:59:16;39.80;;;24.30;;
5357;SDS011;2702;51.014;7.170;2023-01-29T07:01:42;40.27;;;25.03;;
5357;SDS011;2702;51.014;7.170;2023-01-29T07:04:08;36.70;;;22.83;;
5357;SDS011;2702;51.014;7.170;2023-01-29T07:06:35;37.50;;;23.55;;
5357;SDS011;2702;51.014;7.170;2023-01-29T07:09:04;35.00;;;22.57;;
5357;SDS011;2702;51.014;7.170;2023-01-29T07:11:30;36.28;;;22.95;;
5357;SDS011;2702;51.014;7.170;2023-01-29T07:13:58;35.22;;;22.08;;
5357;SDS011;2702;51.014;7.170;2023-01-29T07:16:24;32.40;;;22.17;;
5357;SDS011;2702;51.014;7.170;2023-01-29T07:18:50;32.08;;;21.23;;
5357;SDS011;2702;51.014;7.170;2023-01-29T07:21:16;35.40;;;23.13;;
5357;SDS011;2702;51.014;7.170;2023-01-29T07:23:42;32.20;;;22.30;;
5357;SDS011;2702;51.014;7.170;2023-01-29T07:26:09;36.70;;;24.50;;
5357;SDS011;2702;51.014;7.170;2023-01-29T07:28:36;36.47;;;23.48;;
5357;SDS011;2702;51.014;7.170;2023-01-29T07:31:03;35.20;;;22.63;;
5357;SDS011;2702;51.014;7.170;2023-01-29T07:33:29;35.88;;;23.65;;
5357;SDS011;2702;51.014;7.170;2023-01-29T07:35:55;38.87;;;24.47;;
5357;SDS011;2702;51.014;7.170;2023-01-29T07:38:22;38.47;;;23.98;;
5357;SDS011;2702;51.014;7.170;2023-01-29T07:40:48;36.78;;;24.75;;
5357;SDS011;2702;51.014;7.170;2023-01-29T07:43:15;37.97;;;24.25;;
5357;SDS011;2702;51.014;7.170;2023-01-29T07:45:41;36.87;;;23.80;;
5357;SDS011;2702;51.014;7.170;2023-01-29T07:48:08;40.95;;;24.50;;
5357;SDS011;2702;51.014;7.170;2023-01-29T07:50:36;37.38;;;25.20;;
5357;SDS011;2702;51.014;7.170;2023-01-29T07:53:03;40.42;;;24.40;;
5357;SDS011;2702;51.014;7.170;2023-01-29T07:55:30;35.72;;;23.80;;
5357;SDS011;2702;51.014;7.170;2023-01-29T07:57:58;38.15;;;23.55;;
5357;SDS011;2702;51.014;7.170;2023-01-29T08:00:25;37.22;;;24.75;;
5357;SDS011;2702;51.014;7.170;2023-01-29T08:02:51;35.08;;;23.30;;
5357;SDS011;2702;51.014;7.170;2023-01-29T08:05:17;43.72;;;23.90;;
5357;SDS011;2702;51.014;7.170;2023-01-29T08:07:44;34.17;;;23.02;;
5357;SDS011;2702;51.014;7.170;2023-01-29T08:10:10;35.07;;;24.00;;
5357;SDS011;2702;51.014;7.170;2023-01-29T08:12:36;39.47;;;24.42;;
5357;SDS011;2702;51.014;7.170;2023-01-29T08:15:02;34.27;;;23.10;;
5357;SDS011;2702;51.014;7.170;2023-01-29T08:17:28;37.47;;;23.67;;
5357;SDS011;2702;51.014;7.170;2023-01-29T08:19:53;36.33;;;23.93;;
5357;SDS011;2702;51.014;7.170;2023-01-29T08:22:19;39.13;;;24.43;;
5357;SDS011;2702;51.014;7.170;2023-01-29T08:24:45;33.90;;;23.20;;
5357;SDS011;2702;51.014;7.170;2023-01-29T08:27:11;41.00;;;23.33;;
5357;SDS011;2702;51.014;7.170;2023-01-29T08:29:37;38.30;;;24.37;;
5357;SDS011;2702;51.014;7.170;2023-01-29T08:32:03;36.47;;;23.77;;
5357;SDS011;2702;51.014;7.170;2023-01-29T08:34:29;36.28;;;24.05;;
5357;SDS011;2702;51.014;7.170;2023-01-29T08:36:54;40.53;;;23.77;;
5357;SDS011;2702;51.014;7.170;2023-01-29T08:39:20;36.40;;;24.70;;
5357;SDS011;2702;51.014;7.170;2023-01-29T08:41:46;39.80;;;23.63;;
5357;SDS011;2702;51.014;7.170;2023-01-29T08:44:12;36.70;;;23.13;;
5357;SDS011;2702;51.014;7.170;2023-01-29T08:46:37;35.37;;;23.20;;
5357;SDS011;2702;51.014;7.170;2023-01-29T08:49:05;35.55;;;23.55;;
5357;SDS011;2702;51.014;7.170;2023-01-29T08:51:32;38.97;;;25.67;;
5357;SDS011;2702;51.014;7.170;2023-01-29T08:53:58;35.60;;;24.10;;
5357;SDS011;2702;51.014;7.170;2023-01-29T08:56:24;34.87;;;22.53;;
5357;SDS011;2702;51.014;7.170;2023-01-29T08:58:50;35.10;;;23.10;;
5357;SDS011;2702;51.014;7.170;2023-01-29T09:01:15;35.93;;;23.47;;
5357;SDS011;2702;51.014;7.170;2023-01-29T09:03:41;37.03;;;25.90;;
5357;SDS011;2702;51.014;7.170;2023-01-29T09:06:11;39.78;;;25.40;;
5357;SDS011;2702;51.014;7.170;2023-01-29T09:08:38;37.95;;;22.58;;
5357;SDS011;2702;51.014;7.170;2023-01-29T09:11:04;40.00;;;25.00;;
5357;SDS011;2702;51.014;7.170;2023-01-29T09:13:31;39.95;;;26.00;;
5357;SDS011;2702;51.014;7.170;2023-01-29T09:15:58;36.95;;;23.58;;
5357;SDS011;2702;51.014;7.170;2023-01-29T09:18:25;36.88;;;24.13;;
5357;SDS011;2702;51.014;7.170;2023-01-29T09:20:52;35.63;;;22.60;;
5357;SDS011;2702;51.014;7.170;2023-01-29T09:23:19;35.38;;;24.80;;
5357;SDS011;2702;51.014;7.170;2023-01-29T09:25:44;39.17;;;22.07;;
5357;SDS011;2702;51.014;7.170;2023-01-29T09:28:10;35.67;;;23.07;;
5357;SDS011;2702;51.014;7.170;2023-01-29T09:30:37;38.95;;;24.52;;
5357;SDS011;2702;51.014;7.170;2023-01-29T09:33:04;36.87;;;23.27;;
5357;SDS011;2702;51.014;7.170;2023-01-29T09:35:30;35.03;;;23.42;;
5357;SDS011;2702;51.014;7.170;2023-01-29T09:37:57;37.30;;;24.10;;
5357;SDS011;2702;51.014;7.170;2023-01-29T09:40:24;34.63;;;23.30;;
5357;SDS011;2702;51.014;7.170;2023-01-29T09:42:56;35.70;;;22.80;;
5357;SDS011;2702;51.014;7.170;2023-01-29T09:45:28;33.05;;;22.05;;
5357;SDS011;2702;51.014;7.170;2023-01-29T09:47:57;32.80;;;21.35;;
5357;SDS011;2702;51.014;7.170;2023-01-29T09:50:30;31.27;;;22.27;;
5357;SDS011;2702;51.014;7.170;2023-01-29T09:53:18;35.08;;;21.30;;
5357;SDS011;2702;51.014;7.170;2023-01-29T09:56:20;31.58;;;20.27;;
5357;SDS011;2702;51.014;7.170;2023-01-29T09:58:52;40.78;;;24.70;;
5357;SDS011;2702;51.014;7.170;2023-01-29T10:02:08;32.88;;;22.13;;
5357;SDS011;2702;51.014;7.170;2023-01-29T10:04:41;32.83;;;20.92;;
5357;SDS011;2702;51.014;7.170;2023-01-29T10:13:16;34.58;;;21.63;;
5357;SDS011;2702;51.014;7.170;2023-01-29T10:21:11;36.17;;;24.17;;
5357;SDS011;2702;51.014;7.170;2023-01-29T10:23:51;29.33;;;19.95;;
5357;SDS011;2702;51.014;7.170;2023-01-29T10:26:25;34.88;;;22.98;;
5357;SDS011;2702;51.014;7.170;2023-01-29T10:28:53;33.55;;;21.50;;
5357;SDS011;2702;51.014;7.170;2023-01-29T10:31:28;33.80;;;23.17;;
5357;SDS011;2702;51.014;7.170;2023-01-29T10:34:02;36.85;;;23.20;;
5357;SDS011;2702;51.014;7.170;2023-01-29T10:36:37;32.70;;;20.80;;
5357;SDS011;2702;51.014;7.170;2023-01-29T10:39:16;34.42;;;24.17;;
5357;SDS011;2702;51.014;7.170;2023-01-29T10:58:29;34.35;;;22.38;;
5357;SDS011;2702;51.014;7.170;2023-01-29T11:01:07;30.60;;;20.70;;
5357;SDS011;2702;51.014;7.170;2023-01-29T11:03:36;31.52;;;21.63;;
5357;SDS011;2702;51.014;7.170;2023-01-29T11:06:19;31.25;;;21.65;;
5357;SDS011;2702;51.014;7.170;2023-01-29T11:14:12;33.97;;;22.83;;
5357;SDS011;2702;51.014;7.170;2023-01-29T11:16:44;30.45;;;21.33;;
5357;SDS011;2702;51.014;7.170;2023-01-29T11:19:13;32.10;;;22.20;;
5357;SDS011;2702;51.014;7.170;2023-01-29T11:21:56;31.02;;;22.65;;
5357;SDS011;2702;51.014;7.170;2023-01-29T11:24:24;31.08;;;21.35;;
5357;SDS011;2702;51.014;7.170;2023-01-29T11:26:51;30.10;;;21.55;;
5357;SDS011;2702;51.014;7.170;2023-01-29T11:32:12;29.05;;;20.55;;
5357;SDS011;2702;51.014;7.170;2023-01-29T11:37:32;28.83;;;20.52;;
5357;SDS011;2702;51.014;7.170;2023-01-29T11:42:47;34.13;;;21.63;;
5357;SDS011;2702;51.014;7.170;2023-01-29T11:47:52;30.20;;;20.90;;
5357;SDS011;2702;51.014;7.170;2023-01-29T11:50:23;30.92;;;22.00;;
5357;SDS011;2702;51.014;7.170;2023-01-29T11:52:50;31.85;;;22.15;;
5357;SDS011;2702;51.014;7.170;2023-01-29T11:55:18;33.97;;;21.17;;
5357;SDS011;2702;51.014;7.170;2023-01-29T11:57:48;30.15;;;21.10;;
5357;SDS011;2702;51.014;7.170;2023-01-29T12:00:21;41.67;;;23.67;;
5357;SDS011;2702;51.014;7.170;2023-01-29T12:05:26;32.35;;;21.58;;
5357;SDS011;2702;51.014;7.170;2023-01-29T12:07:53;30.95;;;20.92;;
5357;SDS011;2702;51.014;7.170;2023-01-29T12:13:20;33.08;;;22.67;;
5357;SDS011;2702;51.014;7.170;2023-01-29T12:16:12;37.25;;;22.55;;
5357;SDS011;2702;51.014;7.170;2023-01-29T12:19:33;33.10;;;21.65;;
5357;SDS011;2702;51.014;7.170;2023-01-29T12:24:58;34.45;;;21.48;;
5357;SDS011;2702;51.014;7.170;2023-01-29T12:27:45;30.00;;;20.70;;
5357;SDS011;2702;51.014;7.170;2023-01-29T12:30:19;32.03;;;21.05;;
5357;SDS011;2702;51.014;7.170;2023-01-29T12:35:34;33.42;;;22.52;;
5357;SDS011;2702;51.014;7.170;2023-01-29T12:38:02;32.40;;;23.20;;
5357;SDS011;2702;51.014;7.170;2023-01-29T12:40:45;29.65;;;21.17;;
5357;SDS011;2702;51.014;7.170;2023-01-29T12:43:29;32.53;;;22.08;;
5357;SDS011;2702;51.014;7.170;2023-01-29T12:46:01;30.17;;;20.90;;
5357;SDS011;2702;51.014;7.170;2023-01-29T12:48:35;32.80;;;22.25;;
5357;SDS011;2702;51.014;7.170;2023-01-29T12:51:07;32.00;;;22.63;;
5357;SDS011;2702;51.014;7.170;2023-01-29T12:53:40;32.95;;;20.95;;
5357;SDS011;2702;51.014;7.170;2023-01-29T12:56:15;30.90;;;21.50;;
5357;SDS011;2702;51.014;7.170;2023-01-29T12:59:09;30.38;;;20.45;;
5357;SDS011;2702;51.014;7.170;2023-01-29T13:01:42;30.23;;;20.73;;
5357;SDS011;2702;51.014;7.170;2023-01-29T13:04:35;29.30;;;20.15;;
5357;SDS011;2702;51.014;7.170;2023-01-29T13:07:16;32.85;;;21.35;;
5357;SDS011;2702;51.014;7.170;2023-01-29T13:09:51;31.85;;;21.10;;
5357;SDS011;2702;51.014;7.170;2023-01-29T13:12:23;31.77;;;21.55;;
5357;SDS011;2702;51.014;7.170;2023-01-29T13:14:53;29.90;;;20.83;;
5357;SDS011;2702;51.014;7.170;2023-01-29T13:17:54;28.27;;;19.83;;
5357;SDS011;2702;51.014;7.170;2023-01-29T13:20:31;30.95;;;21.02;;
5357;SDS011;2702;51.014;7.170;2023-01-29T13:23:03;31.65;;;20.30;;
5357;SDS011;2702;51.014;7.170;2023-01-29T13:25:42;29.60;;;19.50;;
5357;SDS011;2702;51.014;7.170;2023-01-29T13:28:17;27.27;;;19.10;;
5357;SDS011;2702;51.014;7.170;2023-01-29T13:30:46;29.33;;;20.25;;
5357;SDS011;2702;51.014;7.170;2023-01-29T13:33:36;28.52;;;19.50;;
5357;SDS011;2702;51.014;7.170;2023-01-29T13:36:03;29.52;;;19.77;;
5357;SDS011;2702;51.014;7.170;2023-01-29T13:38:30;27.77;;;19.65;;
5357;SDS011;2702;51.014;7.170;2023-01-29T13:41:03;24.92;;;17.83;;
5357;SDS011;2702;51.014;7.170;2023-01-29T13:43:36;31.17;;;20.83;;
5357;SDS011;2702;51.014;7.170;2023-01-29T13:46:12;30.30;;;19.52;;
5357;SDS011;2702;51.014;7.170;2023-01-29T13:48:46;30.80;;;19.45;;
5357;SDS011;2702;51.014;7.170;2023-01-29T13:51:15;28.90;;;20.08;;
5357;SDS011;2702;51.014;7.170;2023-01-29T13:53:54;28.65;;;19.83;;
5357;SDS011;2702;51.014;7.170;2023-01-29T13:56:28;25.65;;;19.15;;
5357;SDS011;2702;51.014;7.170;2023-01-29T13:58:57;25.20;;;18.35;;
5357;SDS011;2702;51.014;7.170;2023-01-29T14:06:59;23.77;;;17.77;;
5357;SDS011;2702;51.014;7.170;2023-01-29T14:09:31;27.65;;;18.23;;
5357;SDS011;2702;51.014;7.170;2023-01-29T14:12:06;26.90;;;18.95;;
5357;SDS011;2702;51.014;7.170;2023-01-29T14:17:15;26.43;;;17.77;;
5357;SDS011;2702;51.014;7.170;2023-01-29T14:19:46;24.92;;;17.67;;
5357;SDS011;2702;51.014;7.170;2023-01-29T14:22:35;25.42;;;17.60;;
5357;SDS011;2702;51.014;7.170;2023-01-29T14:25:03;24.60;;;17.73;;
5357;SDS011;2702;51.014;7.170;2023-01-29T14:27:30;22.65;;;15.65;;
5357;SDS011;2702;51.014;7.170;2023-01-29T14:30:00;24.40;;;18.70;;
5357;SDS011;2702;51.014;7.170;2023-01-29T14:32:31;22.92;;;16.75;;
5357;SDS011;2702;51.014;7.170;2023-01-29T14:34:58;24.90;;;18.02;;
5357;SDS011;2702;51.014;7.170;2023-01-29T14:37:34;24.27;;;18.27;;
5357;SDS011;2702;51.014;7.170;2023-01-29T14:43:18;25.08;;;17.00;;
5357;SDS011;2702;51.014;7.170;2023-01-29T14:53:03;22.43;;;16.73;;
5357;SDS011;2702;51.014;7.170;2023-01-29T14:55:51;23.52;;;17.50;;
5357;SDS011;2702;51.014;7.170;2023-01-29T14:58:27;25.90;;;16.75;;
5357;SDS011;2702;51.014;7.170;2023-01-29T15:01:06;27.88;;;18.58;;
5357;SDS011;2702;51.014;7.170;2023-01-29T15:09:13;22.42;;;15.95;;
5357;SDS011;2702;51.014;7.170;2023-01-29T15:20:19;24.23;;;18.07;;
5357;SDS011;2702;51.014;7.170;2023-01-29T15:22:54;24.48;;;17.02;;
5357;SDS011;2702;51.014;7.170;2023-01-29T15:25:20;26.67;;;17.90;;
5357;SDS011;2702;51.014;7.170;2023-01-29T15:27:46;24.85;;;18.00;;
5357;SDS011;2702;51.014;7.170;2023-01-29T15:30:14;27.02;;;16.83;;
5357;SDS011;2702;51.014;7.170;2023-01-29T15:32:46;23.45;;;16.90;;
5357;SDS011;2702;51.014;7.170;2023-01-29T15:35:28;24.00;;;16.35;;
5357;SDS011;2702;51.014;7.170;2023-01-29T15:38:06;25.52;;;17.30;;
5357;SDS011;2702;51.014;7.170;2023-01-29T15:40:38;21.00;;;15.65;;
5357;SDS011;2702;51.014;7.170;2023-01-29T15:43:21;23.77;;;16.45;;
5357;SDS011;2702;51.014;7.170;2023-01-29T15:45:49;23.23;;;16.67;;
5357;SDS011;2702;51.014;7.170;2023-01-29T15:48:18;23.70;;;16.40;;
5357;SDS011;2702;51.014;7.170;2023-01-29T15:50:50;21.65;;;15.45;;
5357;SDS011;2702;51.014;7.170;2023-01-29T15:53:20;23.02;;;16.50;;
5357;SDS011;2702;51.014;7.170;2023-01-29T15:55:51;21.75;;;15.45;;
5357;SDS011;2702;51.014;7.170;2023-01-29T15:58:18;21.00;;;15.27;;
5357;SDS011;2702;51.014;7.170;2023-01-29T16:00:48;25.65;;;15.75;;
5357;SDS011;2702;51.014;7.170;2023-01-29T16:03:24;20.02;;;14.48;;
5357;SDS011;2702;51.014;7.170;2023-01-29T16:05:55;19.20;;;14.15;;
5357;SDS011;2702;51.014;7.170;2023-01-29T16:08:22;19.70;;;14.40;;
5357;SDS011;2702;51.014;7.170;2023-01-29T16:10:59;20.40;;;14.15;;
5357;SDS011;2702;51.014;7.170;2023-01-29T16:13:30;19.25;;;14.43;;
5357;SDS011;2702;51.014;7.170;2023-01-29T16:16:00;18.63;;;13.18;;
5357;SDS011;2702;51.014;7.170;2023-01-29T16:18:37;20.70;;;14.30;;
5357;SDS011;2702;51.014;7.170;2023-01-29T16:21:08;21.30;;;14.25;;
5357;SDS011;2702;51.014;7.170;2023-01-29T16:23:40;18.77;;;14.13;;
5357;SDS011;2702;51.014;7.170;2023-01-29T16:26:19;20.02;;;14.40;;
5357;SDS011;2702;51.014;7.170;2023-01-29T16:28:52;16.63;;;12.07;;
5357;SDS011;2702;51.014;7.170;2023-01-29T16:31:24;20.65;;;14.27;;
5357;SDS011;2702;51.014;7.170;2023-01-29T16:33:53;20.33;;;13.43;;
5357;SDS011;2702;51.014;7.170;2023-01-29T16:36:25;16.90;;;12.73;;
5357;SDS011;2702;51.014;7.170;2023-01-29T16:38:53;15.82;;;12.57;;
5357;SDS011;2702;51.014;7.170;2023-01-29T16:43:51;17.83;;;12.23;;
5357;SDS011;2702;51.014;7.170;2023-01-29T16:46:26;16.92;;;11.95;;
5357;SDS011;2702;51.014;7.170;2023-01-29T16:49:00;15.88;;;11.95;;
5357;SDS011;2702;51.014;7.170;2023-01-29T16:51:36;15.65;;;11.73;;
5357;SDS011;2702;51.014;7.170;2023-01-29T16:54:10;14.90;;;11.75;;
5357;SDS011;2702;51.014;7.170;2023-01-29T16:56:43;16.40;;;11.13;;
5357;SDS011;2702;51.014;7.170;2023-01-29T16:59:14;15.07;;;10.93;;
5357;SDS011;2702;51.014;7.170;2023-01-29T17:01:56;14.35;;;9.93;;
5357;SDS011;2702;51.014;7.170;2023-01-29T17:04:23;12.18;;;9.35;;
5357;SDS011;2702;51.014;7.170;2023-01-29T17:06:53;11.27;;;9.93;;
5357;SDS011;2702;51.014;7.170;2023-01-29T17:09:22;12.88;;;9.88;;
5357;SDS011;2702;51.014;7.170;2023-01-29T17:12:02;13.27;;;9.65;;
5357;SDS011;2702;51.014;7.170;2023-01-29T17:14:31;14.43;;;10.85;;
5357;SDS011;2702;51.014;7.170;2023-01-29T17:17:02;13.45;;;10.52;;
5357;SDS011;2702;51.014;7.170;2023-01-29T17:19:31;10.93;;;9.30;;
5357;SDS011;2702;51.014;7.170;2023-01-29T17:21:57;12.48;;;8.90;;
5357;SDS011;2702;51.014;7.170;2023-01-29T17:24:24;12.32;;;10.13;;
5357;SDS011;2702;51.014;7.170;2023-01-29T17:26:50;10.40;;;8.63;;
5357;SDS011;2702;51.014;7.170;2023-01-29T17:29:18;12.60;;;9.63;;
5357;SDS011;2702;51.014;7.170;2023-01-29T17:31:47;12.40;;;9.38;;
5357;SDS011;2702;51.014;7.170;2023-01-29T17:34:14;13.57;;;8.87;;
5357;SDS011;2702;51.014;7.170;2023-01-29T17:36:41;12.23;;;9.05;;
5357;SDS011;2702;51.014;7.170;2023-01-29T17:39:18;12.93;;;10.05;;
5357;SDS011;2702;51.014;7.170;2023-01-29T17:41:49;14.73;;;9.50;;
5357;SDS011;2702;51.014;7.170;2023-01-29T17:44:17;14.77;;;11.45;;
5357;SDS011;2702;51.014;7.170;2023-01-29T17:46:43;15.18;;;10.07;;
5357;SDS011;2702;51.014;7.170;2023-01-29T17:49:26;15.23;;;11.02;;